sensor_id;sensor_type;location;lat;lon;timestamp;P1;durP1;ratioP1;P2;durP2;ratioP2
42294;SDS011;27947;47.556;18.718;2022-10-17T00:00:10;4.18;;;2.30;;
42294;SDS011;27947;47.556;18.718;2022-10-17T00:02:36;4.95;;;2.13;;
42294;SDS011;27947;47.556;18.718;2022-10-17T00:05:01;3.65;;;2.10;;
42294;SDS011;27947;47.556;18.718;2022-10-17T00:07:27;2.95;;;1.92;;
42294;SDS011;27947;47.556;18.718;2022-10-17T00:09:52;5.65;;;2.33;;
42294;SDS011;27947;47.556;18.718;2022-10-17T00:12:17;3.63;;;2.10;;
42294;SDS011;27947;47.556;18.718;2022-10-17T00:14:43;4.57;;;2.33;;
42294;SDS011;27947;47.556;18.718;2022-10-17T00:17:08;3.90;;;2.05;;
42294;SDS011;27947;47.556;18.718;2022-10-17T00:19:33;3.53;;;2.03;;
42294;SDS011;27947;47.556;18.718;2022-10-17T00:21:59;2.65;;;1.88;;
42294;SDS011;27947;47.556;18.718;2022-10-17T00:24:24;3.22;;;2.00;;
42294;SDS011;27947;47.556;18.718;2022-10-17T00:26:49;5.45;;;2.10;;
42294;SDS011;27947;47.556;18.718;2022-10-17T00:29:15;3.47;;;2.13;;
42294;SDS011;27947;47.556;18.718;2022-10-17T00:31:40;3.20;;;1.90;;
42294;SDS011;27947;47.556;18.718;2022-10-17T00:34:05;4.22;;;1.90;;
42294;SDS011;27947;47.556;18.718;2022-10-17T00:36:31;3.00;;;1.92;;
42294;SDS011;27947;47.556;18.718;2022-10-17T00:38:57;3.92;;;1.65;;
42294;SDS011;27947;47.556;18.718;2022-10-17T00:41:27;3.42;;;1.83;;
42294;SDS011;27947;47.556;18.718;2022-10-17T00:46:18;6.25;;;2.90;;
42294;SDS011;27947;47.556;18.718;2022-10-17T00:48:44;4.80;;;2.42;;
42294;SDS011;27947;47.556;18.718;2022-10-17T00:51:10;5.22;;;2.50;;
42294;SDS011;27947;47.556;18.718;2022-10-17T00:53:36;3.70;;;1.85;;
42294;SDS011;27947;47.556;18.718;2022-10-17T00:56:01;3.60;;;1.90;;
42294;SDS011;27947;47.556;18.718;2022-10-17T00:58:26;4.38;;;2.15;;
42294;SDS011;27947;47.556;18.718;2022-10-17T01:00:52;2.70;;;1.90;;
42294;SDS011;27947;47.556;18.718;2022-10-17T01:03:17;2.88;;;1.67;;
42294;SDS011;27947;47.556;18.718;2022-10-17T01:05:43;5.03;;;2.30;;
42294;SDS011;27947;47.556;18.718;2022-10-17T01:08:08;3.40;;;2.13;;
42294;SDS011;27947;47.556;18.718;2022-10-17T01:10:38;5.25;;;2.15;;
42294;SDS011;27947;47.556;18.718;2022-10-17T01:15:49;6.25;;;2.83;;
42294;SDS011;27947;47.556;18.718;2022-10-17T01:23:59;5.68;;;2.08;;
42294;SDS011;27947;47.556;18.718;2022-10-17T01:31:44;5.20;;;2.30;;
42294;SDS011;27947;47.556;18.718;2022-10-17T01:34:15;3.15;;;1.98;;
42294;SDS011;27947;47.556;18.718;2022-10-17T01:41:40;5.10;;;2.33;;
42294;SDS011;27947;47.556;18.718;2022-10-17T01:44:31;5.10;;;2.35;;
42294;SDS011;27947;47.556;18.718;2022-10-17T01:46:58;4.80;;;2.20;;
42294;SDS011;27947;47.556;18.718;2022-10-17T01:49:25;3.30;;;1.75;;
42294;SDS011;27947;47.556;18.718;2022-10-17T01:51:59;4.93;;;2.50;;
42294;SDS011;27947;47.556;18.718;2022-10-17T01:54:27;5.43;;;2.30;;
42294;SDS011;27947;47.556;18.718;2022-10-17T01:56:57;5.03;;;2.35;;
42294;SDS011;27947;47.556;18.718;2022-10-17T01:59:30;3.92;;;2.33;;
42294;SDS011;27947;47.556;18.718;2022-10-17T02:01:59;4.65;;;2.50;;
42294;SDS011;27947;47.556;18.718;2022-10-17T02:04:25;18.23;;;3.33;;
42294;SDS011;27947;47.556;18.718;2022-10-17T02:06:51;6.95;;;2.40;;
42294;SDS011;27947;47.556;18.718;2022-10-17T02:09:18;5.50;;;2.85;;
42294;SDS011;27947;47.556;18.718;2022-10-17T02:11:48;5.38;;;2.88;;
42294;SDS011;27947;47.556;18.718;2022-10-17T02:14:24;4.47;;;2.72;;
42294;SDS011;27947;47.556;18.718;2022-10-17T02:19:45;6.85;;;2.88;;
42294;SDS011;27947;47.556;18.718;2022-10-17T02:27:10;4.45;;;2.47;;
42294;SDS011;27947;47.556;18.718;2022-10-17T02:29:42;6.63;;;2.42;;
42294;SDS011;27947;47.556;18.718;2022-10-17T02:32:56;6.60;;;2.90;;
42294;SDS011;27947;47.556;18.718;2022-10-17T02:34:56;5.10;;;2.20;;
42294;SDS011;27947;47.556;18.718;2022-10-17T02:37:26;4.15;;;2.60;;
42294;SDS011;27947;47.556;18.718;2022-10-17T02:39:53;7.63;;;3.20;;
42294;SDS011;27947;47.556;18.718;2022-10-17T02:42:19;5.10;;;3.03;;
42294;SDS011;27947;47.556;18.718;2022-10-17T02:44:45;4.47;;;2.67;;
42294;SDS011;27947;47.556;18.718;2022-10-17T02:47:26;5.47;;;2.53;;
42294;SDS011;27947;47.556;18.718;2022-10-17T02:49:54;3.75;;;2.03;;
42294;SDS011;27947;47.556;18.718;2022-10-17T02:55:12;10.98;;;3.05;;
42294;SDS011;27947;47.556;18.718;2022-10-17T02:57:55;5.20;;;2.50;;
42294;SDS011;27947;47.556;18.718;2022-10-17T03:00:21;6.03;;;2.35;;
42294;SDS011;27947;47.556;18.718;2022-10-17T03:02:49;4.03;;;2.22;;
42294;SDS011;27947;47.556;18.718;2022-10-17T03:05:25;3.58;;;2.17;;
42294;SDS011;27947;47.556;18.718;2022-10-17T03:07:50;6.22;;;2.53;;
42294;SDS011;27947;47.556;18.718;2022-10-17T03:10:16;4.10;;;2.35;;
42294;SDS011;27947;47.556;18.718;2022-10-17T03:12:42;6.07;;;2.58;;
42294;SDS011;27947;47.556;18.718;2022-10-17T03:15:08;6.03;;;2.70;;
42294;SDS011;27947;47.556;18.718;2022-10-17T03:17:34;4.65;;;2.47;;
42294;SDS011;27947;47.556;18.718;2022-10-17T03:19:59;9.20;;;2.83;;
42294;SDS011;27947;47.556;18.718;2022-10-17T03:22:25;5.00;;;2.53;;
42294;SDS011;27947;47.556;18.718;2022-10-17T03:24:50;3.83;;;2.28;;
42294;SDS011;27947;47.556;18.718;2022-10-17T03:27:15;4.88;;;2.60;;
42294;SDS011;27947;47.556;18.718;2022-10-17T03:29:42;4.53;;;2.58;;
42294;SDS011;27947;47.556;18.718;2022-10-17T03:32:08;4.95;;;2.58;;
42294;SDS011;27947;47.556;18.718;2022-10-17T03:34:35;3.28;;;2.10;;
42294;SDS011;27947;47.556;18.718;2022-10-17T03:37:00;7.90;;;3.03;;
42294;SDS011;27947;47.556;18.718;2022-10-17T03:39:27;5.72;;;2.47;;
42294;SDS011;27947;47.556;18.718;2022-10-17T03:41:52;3.58;;;2.15;;
42294;SDS011;27947;47.556;18.718;2022-10-17T03:44:18;7.85;;;2.45;;
42294;SDS011;27947;47.556;18.718;2022-10-17T03:46:44;4.97;;;2.55;;
42294;SDS011;27947;47.556;18.718;2022-10-17T03:49:09;5.63;;;2.22;;
42294;SDS011;27947;47.556;18.718;2022-10-17T03:51:35;5.40;;;2.65;;
42294;SDS011;27947;47.556;18.718;2022-10-17T03:54:05;3.90;;;2.17;;
42294;SDS011;27947;47.556;18.718;2022-10-17T03:56:30;4.53;;;2.47;;
42294;SDS011;27947;47.556;18.718;2022-10-17T03:59:00;6.97;;;2.53;;
42294;SDS011;27947;47.556;18.718;2022-10-17T04:01:27;7.90;;;2.38;;
42294;SDS011;27947;47.556;18.718;2022-10-17T04:03:53;7.25;;;2.78;;
42294;SDS011;27947;47.556;18.718;2022-10-17T04:06:19;10.90;;;3.35;;
42294;SDS011;27947;47.556;18.718;2022-10-17T04:08:45;6.07;;;2.42;;
42294;SDS011;27947;47.556;18.718;2022-10-17T04:11:16;4.57;;;2.13;;
42294;SDS011;27947;47.556;18.718;2022-10-17T04:13:42;4.38;;;2.17;;
42294;SDS011;27947;47.556;18.718;2022-10-17T04:16:09;5.60;;;2.83;;
42294;SDS011;27947;47.556;18.718;2022-10-17T04:18:40;4.72;;;2.45;;
42294;SDS011;27947;47.556;18.718;2022-10-17T04:21:06;5.60;;;2.45;;
42294;SDS011;27947;47.556;18.718;2022-10-17T04:23:32;4.53;;;2.92;;
42294;SDS011;27947;47.556;18.718;2022-10-17T04:26:05;4.55;;;2.17;;
42294;SDS011;27947;47.556;18.718;2022-10-17T04:28:31;6.90;;;2.90;;
42294;SDS011;27947;47.556;18.718;2022-10-17T04:30:57;4.88;;;2.85;;
42294;SDS011;27947;47.556;18.718;2022-10-17T04:33:26;4.25;;;2.30;;
42294;SDS011;27947;47.556;18.718;2022-10-17T04:35:58;3.90;;;2.38;;
42294;SDS011;27947;47.556;18.718;2022-10-17T04:38:24;5.13;;;2.45;;
42294;SDS011;27947;47.556;18.718;2022-10-17T04:40:50;5.82;;;2.65;;
42294;SDS011;27947;47.556;18.718;2022-10-17T04:43:15;4.88;;;2.67;;
42294;SDS011;27947;47.556;18.718;2022-10-17T04:45:42;6.05;;;2.70;;
42294;SDS011;27947;47.556;18.718;2022-10-17T04:48:08;3.65;;;2.25;;
42294;SDS011;27947;47.556;18.718;2022-10-17T04:50:34;4.20;;;2.25;;
42294;SDS011;27947;47.556;18.718;2022-10-17T04:53:22;5.78;;;2.30;;
42294;SDS011;27947;47.556;18.718;2022-10-17T04:55:48;6.20;;;2.88;;
42294;SDS011;27947;47.556;18.718;2022-10-17T04:58:14;7.35;;;3.08;;
42294;SDS011;27947;47.556;18.718;2022-10-17T05:00:40;4.43;;;2.55;;
42294;SDS011;27947;47.556;18.718;2022-10-17T05:03:12;4.82;;;2.53;;
42294;SDS011;27947;47.556;18.718;2022-10-17T05:05:38;4.50;;;2.55;;
42294;SDS011;27947;47.556;18.718;2022-10-17T05:08:04;4.40;;;2.58;;
42294;SDS011;27947;47.556;18.718;2022-10-17T05:10:37;4.00;;;2.67;;
42294;SDS011;27947;47.556;18.718;2022-10-17T05:15:30;15.65;;;3.00;;
42294;SDS011;27947;47.556;18.718;2022-10-17T05:17:56;4.75;;;2.67;;
42294;SDS011;27947;47.556;18.718;2022-10-17T05:20:23;5.70;;;2.63;;
42294;SDS011;27947;47.556;18.718;2022-10-17T05:22:48;6.20;;;2.60;;
42294;SDS011;27947;47.556;18.718;2022-10-17T05:25:14;5.38;;;2.95;;
42294;SDS011;27947;47.556;18.718;2022-10-17T05:27:39;8.35;;;3.00;;
42294;SDS011;27947;47.556;18.718;2022-10-17T05:30:05;7.55;;;3.35;;
42294;SDS011;27947;47.556;18.718;2022-10-17T05:32:32;7.18;;;2.88;;
42294;SDS011;27947;47.556;18.718;2022-10-17T05:34:57;5.93;;;3.00;;
42294;SDS011;27947;47.556;18.718;2022-10-17T05:37:24;5.57;;;2.50;;
42294;SDS011;27947;47.556;18.718;2022-10-17T05:39:52;5.22;;;2.70;;
42294;SDS011;27947;47.556;18.718;2022-10-17T05:42:18;4.10;;;2.50;;
42294;SDS011;27947;47.556;18.718;2022-10-17T05:44:44;4.43;;;2.78;;
42294;SDS011;27947;47.556;18.718;2022-10-17T05:47:11;5.65;;;2.85;;
42294;SDS011;27947;47.556;18.718;2022-10-17T05:49:37;6.25;;;3.22;;
42294;SDS011;27947;47.556;18.718;2022-10-17T05:52:02;6.38;;;2.95;;
42294;SDS011;27947;47.556;18.718;2022-10-17T05:54:33;5.15;;;3.10;;
42294;SDS011;27947;47.556;18.718;2022-10-17T05:56:59;6.25;;;2.78;;
42294;SDS011;27947;47.556;18.718;2022-10-17T05:59:28;6.30;;;3.10;;
42294;SDS011;27947;47.556;18.718;2022-10-17T06:02:04;6.35;;;2.75;;
42294;SDS011;27947;47.556;18.718;2022-10-17T06:04:29;6.15;;;2.90;;
42294;SDS011;27947;47.556;18.718;2022-10-17T06:06:55;6.15;;;2.83;;
42294;SDS011;27947;47.556;18.718;2022-10-17T06:09:21;6.55;;;3.25;;
42294;SDS011;27947;47.556;18.718;2022-10-17T06:11:48;5.30;;;2.67;;
42294;SDS011;27947;47.556;18.718;2022-10-17T06:14:14;4.75;;;2.65;;
42294;SDS011;27947;47.556;18.718;2022-10-17T06:16:40;6.10;;;2.97;;
42294;SDS011;27947;47.556;18.718;2022-10-17T06:19:05;5.82;;;3.00;;
42294;SDS011;27947;47.556;18.718;2022-10-17T06:21:31;5.07;;;2.97;;
42294;SDS011;27947;47.556;18.718;2022-10-17T06:24:10;5.88;;;3.33;;
42294;SDS011;27947;47.556;18.718;2022-10-17T06:26:38;7.30;;;3.40;;
42294;SDS011;27947;47.556;18.718;2022-10-17T06:29:05;6.35;;;3.17;;
42294;SDS011;27947;47.556;18.718;2022-10-17T06:31:34;5.70;;;3.28;;
42294;SDS011;27947;47.556;18.718;2022-10-17T06:34:00;4.53;;;3.03;;
42294;SDS011;27947;47.556;18.718;2022-10-17T06:36:25;5.15;;;2.92;;
42294;SDS011;27947;47.556;18.718;2022-10-17T06:38:50;6.90;;;2.63;;
42294;SDS011;27947;47.556;18.718;2022-10-17T06:41:25;9.90;;;3.15;;
42294;SDS011;27947;47.556;18.718;2022-10-17T06:43:52;7.65;;;3.58;;
42294;SDS011;27947;47.556;18.718;2022-10-17T06:46:38;6.68;;;3.33;;
42294;SDS011;27947;47.556;18.718;2022-10-17T06:49:06;9.20;;;3.20;;
42294;SDS011;27947;47.556;18.718;2022-10-17T06:51:52;6.50;;;3.00;;
42294;SDS011;27947;47.556;18.718;2022-10-17T06:54:21;8.00;;;4.13;;
42294;SDS011;27947;47.556;18.718;2022-10-17T06:57:05;5.25;;;3.20;;
42294;SDS011;27947;47.556;18.718;2022-10-17T06:59:54;5.20;;;3.28;;
42294;SDS011;27947;47.556;18.718;2022-10-17T07:02:25;6.97;;;3.30;;
42294;SDS011;27947;47.556;18.718;2022-10-17T07:04:52;7.72;;;3.35;;
42294;SDS011;27947;47.556;18.718;2022-10-17T07:07:17;6.75;;;3.33;;
42294;SDS011;27947;47.556;18.718;2022-10-17T07:09:42;6.45;;;3.53;;
42294;SDS011;27947;47.556;18.718;2022-10-17T07:12:08;5.15;;;3.17;;
42294;SDS011;27947;47.556;18.718;2022-10-17T07:14:40;5.60;;;2.72;;
42294;SDS011;27947;47.556;18.718;2022-10-17T07:17:05;6.93;;;3.38;;
42294;SDS011;27947;47.556;18.718;2022-10-17T07:19:31;4.32;;;2.92;;
42294;SDS011;27947;47.556;18.718;2022-10-17T07:21:56;7.85;;;4.13;;
42294;SDS011;27947;47.556;18.718;2022-10-17T07:24:22;9.27;;;3.65;;
42294;SDS011;27947;47.556;18.718;2022-10-17T07:26:53;6.00;;;3.70;;
42294;SDS011;27947;47.556;18.718;2022-10-17T07:29:19;5.78;;;3.03;;
42294;SDS011;27947;47.556;18.718;2022-10-17T07:32:07;5.25;;;3.17;;
42294;SDS011;27947;47.556;18.718;2022-10-17T07:34:34;5.25;;;3.20;;
42294;SDS011;27947;47.556;18.718;2022-10-17T07:36:59;5.03;;;2.70;;
42294;SDS011;27947;47.556;18.718;2022-10-17T07:39:24;4.03;;;2.65;;
42294;SDS011;27947;47.556;18.718;2022-10-17T07:41:50;6.30;;;2.85;;
42294;SDS011;27947;47.556;18.718;2022-10-17T07:44:16;4.82;;;2.78;;
42294;SDS011;27947;47.556;18.718;2022-10-17T07:46:45;4.60;;;2.88;;
42294;SDS011;27947;47.556;18.718;2022-10-17T07:49:10;6.07;;;2.90;;
42294;SDS011;27947;47.556;18.718;2022-10-17T07:51:36;5.50;;;2.70;;
42294;SDS011;27947;47.556;18.718;2022-10-17T07:54:01;7.07;;;3.17;;
42294;SDS011;27947;47.556;18.718;2022-10-17T07:56:28;5.07;;;2.55;;
42294;SDS011;27947;47.556;18.718;2022-10-17T07:58:54;5.40;;;3.40;;
42294;SDS011;27947;47.556;18.718;2022-10-17T08:01:19;8.30;;;3.25;;
42294;SDS011;27947;47.556;18.718;2022-10-17T08:03:45;6.35;;;2.83;;
42294;SDS011;27947;47.556;18.718;2022-10-17T08:06:11;6.95;;;3.40;;
42294;SDS011;27947;47.556;18.718;2022-10-17T08:08:36;7.05;;;3.30;;
42294;SDS011;27947;47.556;18.718;2022-10-17T08:11:03;7.65;;;3.53;;
42294;SDS011;27947;47.556;18.718;2022-10-17T08:13:28;8.40;;;3.25;;
42294;SDS011;27947;47.556;18.718;2022-10-17T08:15:57;8.52;;;3.70;;
42294;SDS011;27947;47.556;18.718;2022-10-17T08:18:22;4.85;;;2.70;;
42294;SDS011;27947;47.556;18.718;2022-10-17T08:20:48;6.95;;;3.67;;
42294;SDS011;27947;47.556;18.718;2022-10-17T08:23:13;6.10;;;3.00;;
42294;SDS011;27947;47.556;18.718;2022-10-17T08:25:38;5.28;;;3.15;;
42294;SDS011;27947;47.556;18.718;2022-10-17T08:28:04;5.57;;;2.97;;
42294;SDS011;27947;47.556;18.718;2022-10-17T08:30:29;5.28;;;2.65;;
42294;SDS011;27947;47.556;18.718;2022-10-17T08:32:55;6.28;;;3.38;;
42294;SDS011;27947;47.556;18.718;2022-10-17T08:35:20;5.68;;;2.55;;
42294;SDS011;27947;47.556;18.718;2022-10-17T08:37:46;5.28;;;2.78;;
42294;SDS011;27947;47.556;18.718;2022-10-17T08:40:47;7.57;;;3.00;;
42294;SDS011;27947;47.556;18.718;2022-10-17T08:43:10;5.68;;;2.50;;
42294;SDS011;27947;47.556;18.718;2022-10-17T08:45:43;6.10;;;3.15;;
42294;SDS011;27947;47.556;18.718;2022-10-17T08:48:11;5.88;;;2.28;;
42294;SDS011;27947;47.556;18.718;2022-10-17T08:55:47;6.18;;;3.08;;
42294;SDS011;27947;47.556;18.718;2022-10-17T08:58:13;6.47;;;3.08;;
42294;SDS011;27947;47.556;18.718;2022-10-17T09:00:40;7.25;;;3.08;;
42294;SDS011;27947;47.556;18.718;2022-10-17T09:06:45;9.10;;;3.40;;
42294;SDS011;27947;47.556;18.718;2022-10-17T09:14:29;7.82;;;2.58;;
42294;SDS011;27947;47.556;18.718;2022-10-17T09:19:30;4.65;;;2.25;;
42294;SDS011;27947;47.556;18.718;2022-10-17T09:22:07;5.70;;;2.50;;
42294;SDS011;27947;47.556;18.718;2022-10-17T09:24:43;6.40;;;2.90;;
42294;SDS011;27947;47.556;18.718;2022-10-17T09:29:48;5.90;;;2.85;;
42294;SDS011;27947;47.556;18.718;2022-10-17T09:32:16;2.65;;;1.90;;
42294;SDS011;27947;47.556;18.718;2022-10-17T09:34:42;5.70;;;2.20;;
42294;SDS011;27947;47.556;18.718;2022-10-17T09:37:12;3.33;;;2.10;;
42294;SDS011;27947;47.556;18.718;2022-10-17T09:39:38;5.00;;;2.60;;
42294;SDS011;27947;47.556;18.718;2022-10-17T09:42:06;4.00;;;1.92;;
42294;SDS011;27947;47.556;18.718;2022-10-17T09:44:35;3.80;;;2.10;;
42294;SDS011;27947;47.556;18.718;2022-10-17T09:49:36;2.67;;;1.73;;
42294;SDS011;27947;47.556;18.718;2022-10-17T09:52:03;3.63;;;1.90;;
42294;SDS011;27947;47.556;18.718;2022-10-17T09:54:32;3.90;;;1.83;;
42294;SDS011;27947;47.556;18.718;2022-10-17T09:57:04;2.83;;;1.95;;
42294;SDS011;27947;47.556;18.718;2022-10-17T09:59:30;2.42;;;1.52;;
42294;SDS011;27947;47.556;18.718;2022-10-17T10:02:06;3.88;;;1.88;;
42294;SDS011;27947;47.556;18.718;2022-10-17T10:04:31;3.75;;;1.80;;
42294;SDS011;27947;47.556;18.718;2022-10-17T10:07:00;2.92;;;1.63;;
42294;SDS011;27947;47.556;18.718;2022-10-17T10:09:27;2.78;;;1.52;;
42294;SDS011;27947;47.556;18.718;2022-10-17T10:11:54;2.67;;;1.48;;
42294;SDS011;27947;47.556;18.718;2022-10-17T10:14:36;3.35;;;1.77;;
42294;SDS011;27947;47.556;18.718;2022-10-17T10:17:05;2.40;;;1.60;;
42294;SDS011;27947;47.556;18.718;2022-10-17T10:19:50;3.90;;;2.10;;
42294;SDS011;27947;47.556;18.718;2022-10-17T10:22:19;4.68;;;2.35;;
42294;SDS011;27947;47.556;18.718;2022-10-17T10:24:46;3.75;;;1.75;;
42294;SDS011;27947;47.556;18.718;2022-10-17T10:27:30;4.45;;;1.60;;
42294;SDS011;27947;47.556;18.718;2022-10-17T10:29:55;4.85;;;2.03;;
42294;SDS011;27947;47.556;18.718;2022-10-17T10:34:51;4.07;;;2.03;;
42294;SDS011;27947;47.556;18.718;2022-10-17T10:37:21;3.33;;;2.03;;
42294;SDS011;27947;47.556;18.718;2022-10-17T10:44:48;3.55;;;1.55;;
42294;SDS011;27947;47.556;18.718;2022-10-17T10:47:16;2.72;;;1.40;;
42294;SDS011;27947;47.556;18.718;2022-10-17T10:49:42;3.33;;;1.80;;
42294;SDS011;27947;47.556;18.718;2022-10-17T10:52:09;2.58;;;1.23;;
42294;SDS011;27947;47.556;18.718;2022-10-17T10:54:36;2.05;;;1.40;;
42294;SDS011;27947;47.556;18.718;2022-10-17T10:57:04;3.70;;;1.88;;
42294;SDS011;27947;47.556;18.718;2022-10-17T10:59:34;3.10;;;1.55;;
42294;SDS011;27947;47.556;18.718;2022-10-17T11:04:46;2.80;;;1.52;;
42294;SDS011;27947;47.556;18.718;2022-10-17T11:12:19;1.80;;;1.25;;
42294;SDS011;27947;47.556;18.718;2022-10-17T11:17:14;2.35;;;1.67;;
42294;SDS011;27947;47.556;18.718;2022-10-17T11:19:55;3.33;;;1.65;;
42294;SDS011;27947;47.556;18.718;2022-10-17T11:24:52;2.92;;;1.38;;
42294;SDS011;27947;47.556;18.718;2022-10-17T11:27:22;4.68;;;1.77;;
42294;SDS011;27947;47.556;18.718;2022-10-17T11:29:47;2.90;;;1.73;;
42294;SDS011;27947;47.556;18.718;2022-10-17T11:34:42;3.00;;;1.67;;
42294;SDS011;27947;47.556;18.718;2022-10-17T11:37:30;2.88;;;1.13;;
42294;SDS011;27947;47.556;18.718;2022-10-17T11:40:02;2.28;;;1.33;;
42294;SDS011;27947;47.556;18.718;2022-10-17T11:42:31;1.25;;;1.00;;
42294;SDS011;27947;47.556;18.718;2022-10-17T11:44:59;3.28;;;1.40;;
42294;SDS011;27947;47.556;18.718;2022-10-17T11:47:35;1.33;;;1.13;;
42294;SDS011;27947;47.556;18.718;2022-10-17T11:54:53;2.10;;;1.35;;
42294;SDS011;27947;47.556;18.718;2022-10-17T12:02:41;3.58;;;1.52;;
42294;SDS011;27947;47.556;18.718;2022-10-17T12:05:03;2.15;;;1.35;;
42294;SDS011;27947;47.556;18.718;2022-10-17T12:12:28;1.80;;;1.35;;
42294;SDS011;27947;47.556;18.718;2022-10-17T12:15:25;1.88;;;1.08;;
42294;SDS011;27947;47.556;18.718;2022-10-17T12:17:40;2.80;;;1.60;;
42294;SDS011;27947;47.556;18.718;2022-10-17T12:20:23;0.98;;;0.90;;
42294;SDS011;27947;47.556;18.718;2022-10-17T12:27:44;2.80;;;1.02;;
42294;SDS011;27947;47.556;18.718;2022-10-17T12:32:37;3.13;;;1.40;;
42294;SDS011;27947;47.556;18.718;2022-10-17T12:35:03;1.85;;;1.40;;
42294;SDS011;27947;47.556;18.718;2022-10-17T12:42:53;2.53;;;1.38;;
42294;SDS011;27947;47.556;18.718;2022-10-17T12:48:02;2.65;;;1.27;;
42294;SDS011;27947;47.556;18.718;2022-10-17T12:51:11;1.55;;;1.15;;
42294;SDS011;27947;47.556;18.718;2022-10-17T12:53:16;2.08;;;1.52;;
42294;SDS011;27947;47.556;18.718;2022-10-17T12:55:44;1.60;;;0.98;;
42294;SDS011;27947;47.556;18.718;2022-10-17T12:58:13;2.25;;;1.10;;
42294;SDS011;27947;47.556;18.718;2022-10-17T13:00:52;2.13;;;1.40;;
42294;SDS011;27947;47.556;18.718;2022-10-17T13:03:20;2.45;;;1.45;;
42294;SDS011;27947;47.556;18.718;2022-10-17T13:05:47;3.00;;;1.30;;
42294;SDS011;27947;47.556;18.718;2022-10-17T13:08:14;1.60;;;1.33;;
42294;SDS011;27947;47.556;18.718;2022-10-17T13:10:40;2.22;;;1.20;;
42294;SDS011;27947;47.556;18.718;2022-10-17T13:13:14;1.10;;;1.00;;
42294;SDS011;27947;47.556;18.718;2022-10-17T13:15:44;2.90;;;1.35;;
42294;SDS011;27947;47.556;18.718;2022-10-17T13:18:12;2.40;;;1.33;;
42294;SDS011;27947;47.556;18.718;2022-10-17T13:20:40;2.05;;;1.40;;
42294;SDS011;27947;47.556;18.718;2022-10-17T13:23:20;1.83;;;1.45;;
42294;SDS011;27947;47.556;18.718;2022-10-17T13:25:46;1.98;;;1.40;;
42294;SDS011;27947;47.556;18.718;2022-10-17T13:28:11;2.30;;;1.55;;
42294;SDS011;27947;47.556;18.718;2022-10-17T13:30:38;3.28;;;1.80;;
42294;SDS011;27947;47.556;18.718;2022-10-17T13:33:14;3.10;;;1.42;;
42294;SDS011;27947;47.556;18.718;2022-10-17T13:35:42;3.30;;;1.27;;
42294;SDS011;27947;47.556;18.718;2022-10-17T13:38:09;2.58;;;1.55;;
42294;SDS011;27947;47.556;18.718;2022-10-17T13:40:38;2.08;;;1.40;;
42294;SDS011;27947;47.556;18.718;2022-10-17T13:43:04;2.88;;;1.30;;
42294;SDS011;27947;47.556;18.718;2022-10-17T13:45:36;2.08;;;1.35;;
42294;SDS011;27947;47.556;18.718;2022-10-17T13:48:02;1.13;;;1.02;;
42294;SDS011;27947;47.556;18.718;2022-10-17T13:50:31;1.73;;;1.05;;
42294;SDS011;27947;47.556;18.718;2022-10-17T13:53:06;1.92;;;1.27;;
42294;SDS011;27947;47.556;18.718;2022-10-17T13:55:32;3.25;;;1.45;;
42294;SDS011;27947;47.556;18.718;2022-10-17T13:58:16;4.43;;;1.85;;
42294;SDS011;27947;47.556;18.718;2022-10-17T14:00:42;3.33;;;1.65;;
42294;SDS011;27947;47.556;18.718;2022-10-17T14:03:08;1.83;;;1.35;;
42294;SDS011;27947;47.556;18.718;2022-10-17T14:05:33;3.63;;;2.03;;
42294;SDS011;27947;47.556;18.718;2022-10-17T14:08:02;2.17;;;1.40;;
42294;SDS011;27947;47.556;18.718;2022-10-17T14:12:56;1.88;;;1.13;;
42294;SDS011;27947;47.556;18.718;2022-10-17T14:15:26;2.10;;;1.30;;
42294;SDS011;27947;47.556;18.718;2022-10-17T14:17:56;3.53;;;1.30;;
42294;SDS011;27947;47.556;18.718;2022-10-17T14:20:22;2.28;;;1.25;;
42294;SDS011;27947;47.556;18.718;2022-10-17T14:22:48;2.05;;;1.40;;
42294;SDS011;27947;47.556;18.718;2022-10-17T14:27:55;2.05;;;1.33;;
42294;SDS011;27947;47.556;18.718;2022-10-17T14:30:31;2.95;;;1.30;;
42294;SDS011;27947;47.556;18.718;2022-10-17T14:32:57;2.03;;;1.10;;
42294;SDS011;27947;47.556;18.718;2022-10-17T14:35:23;3.15;;;1.55;;
42294;SDS011;27947;47.556;18.718;2022-10-17T14:37:50;5.03;;;1.60;;
42294;SDS011;27947;47.556;18.718;2022-10-17T14:40:17;2.53;;;1.10;;
42294;SDS011;27947;47.556;18.718;2022-10-17T14:42:43;2.05;;;1.10;;
42294;SDS011;27947;47.556;18.718;2022-10-17T14:45:13;2.53;;;1.20;;
42294;SDS011;27947;47.556;18.718;2022-10-17T14:47:39;2.13;;;1.63;;
42294;SDS011;27947;47.556;18.718;2022-10-17T14:52:31;4.22;;;1.90;;
42294;SDS011;27947;47.556;18.718;2022-10-17T14:54:57;2.75;;;1.20;;
42294;SDS011;27947;47.556;18.718;2022-10-17T14:59:49;2.72;;;1.77;;
42294;SDS011;27947;47.556;18.718;2022-10-17T15:02:15;4.50;;;2.28;;
42294;SDS011;27947;47.556;18.718;2022-10-17T15:04:40;4.40;;;2.05;;
42294;SDS011;27947;47.556;18.718;2022-10-17T15:07:06;2.20;;;1.48;;
42294;SDS011;27947;47.556;18.718;2022-10-17T15:09:31;3.90;;;1.50;;
42294;SDS011;27947;47.556;18.718;2022-10-17T15:12:00;2.85;;;1.65;;
42294;SDS011;27947;47.556;18.718;2022-10-17T15:14:26;2.03;;;1.52;;
42294;SDS011;27947;47.556;18.718;2022-10-17T15:16:52;2.30;;;1.05;;
42294;SDS011;27947;47.556;18.718;2022-10-17T15:19:17;2.47;;;1.25;;
42294;SDS011;27947;47.556;18.718;2022-10-17T15:21:42;2.17;;;1.23;;
42294;SDS011;27947;47.556;18.718;2022-10-17T15:24:08;1.38;;;1.10;;
42294;SDS011;27947;47.556;18.718;2022-10-17T15:26:33;2.75;;;1.60;;
42294;SDS011;27947;47.556;18.718;2022-10-17T15:28:59;4.88;;;1.13;;
42294;SDS011;27947;47.556;18.718;2022-10-17T15:31:25;4.93;;;1.35;;
42294;SDS011;27947;47.556;18.718;2022-10-17T15:33:50;2.00;;;1.25;;
42294;SDS011;27947;47.556;18.718;2022-10-17T15:38:41;1.75;;;1.05;;
42294;SDS011;27947;47.556;18.718;2022-10-17T15:41:07;2.28;;;1.23;;
42294;SDS011;27947;47.556;18.718;2022-10-17T15:43:33;3.00;;;1.58;;
42294;SDS011;27947;47.556;18.718;2022-10-17T15:45:58;1.90;;;1.27;;
42294;SDS011;27947;47.556;18.718;2022-10-17T15:48:25;2.70;;;1.50;;
42294;SDS011;27947;47.556;18.718;2022-10-17T15:50:52;3.40;;;1.83;;
42294;SDS011;27947;47.556;18.718;2022-10-17T15:53:17;4.32;;;1.27;;
42294;SDS011;27947;47.556;18.718;2022-10-17T15:55:43;0.93;;;0.80;;
42294;SDS011;27947;47.556;18.718;2022-10-17T15:58:11;2.88;;;1.38;;
42294;SDS011;27947;47.556;18.718;2022-10-17T16:00:38;2.30;;;1.20;;
42294;SDS011;27947;47.556;18.718;2022-10-17T16:03:04;3.28;;;1.40;;
42294;SDS011;27947;47.556;18.718;2022-10-17T16:05:29;3.35;;;1.70;;
42294;SDS011;27947;47.556;18.718;2022-10-17T16:07:54;4.53;;;1.83;;
42294;SDS011;27947;47.556;18.718;2022-10-17T16:10:21;2.92;;;1.65;;
42294;SDS011;27947;47.556;18.718;2022-10-17T16:12:47;2.85;;;1.63;;
42294;SDS011;27947;47.556;18.718;2022-10-17T16:15:21;3.00;;;1.83;;
42294;SDS011;27947;47.556;18.718;2022-10-17T16:17:47;4.10;;;2.17;;
42294;SDS011;27947;47.556;18.718;2022-10-17T16:20:12;3.83;;;1.90;;
42294;SDS011;27947;47.556;18.718;2022-10-17T16:22:38;3.72;;;2.13;;
42294;SDS011;27947;47.556;18.718;2022-10-17T16:25:07;2.88;;;1.40;;
42294;SDS011;27947;47.556;18.718;2022-10-17T16:27:43;3.55;;;1.90;;
42294;SDS011;27947;47.556;18.718;2022-10-17T16:30:08;2.63;;;1.70;;
42294;SDS011;27947;47.556;18.718;2022-10-17T16:32:34;3.75;;;1.65;;
42294;SDS011;27947;47.556;18.718;2022-10-17T16:34:59;2.97;;;1.60;;
42294;SDS011;27947;47.556;18.718;2022-10-17T16:37:25;4.80;;;1.75;;
42294;SDS011;27947;47.556;18.718;2022-10-17T16:39:51;3.13;;;1.60;;